createdAt,value
2022-10-04T00:01:11.650Z,67.68
2022-10-04T00:03:45.971Z,67.70
2022-10-04T00:06:22.578Z,67.74
2022-10-04T00:08:54.975Z,67.46
2022-10-04T00:11:29.368Z,67.49
2022-10-04T00:14:00.786Z,67.87
2022-10-04T00:16:34.087Z,67.30
2022-10-04T00:19:25.498Z,67.58
2022-10-04T00:22:28.562Z,67.63
2022-10-04T00:25:20.814Z,67.79
2022-10-04T00:28:29.298Z,67.67
2022-10-04T00:31:18.117Z,67.62
2022-10-04T00:33:49.765Z,67.62
2022-10-04T00:36:46.611Z,67.65
2022-10-04T00:39:26.593Z,67.57
2022-10-04T00:42:06.171Z,67.56
2022-10-04T00:44:42.873Z,67.83
2022-10-04T00:47:21.949Z,67.89
2022-10-04T00:49:56.562Z,68.02
2022-10-04T00:52:30.219Z,67.95
2022-10-04T00:55:04.175Z,67.66
2022-10-04T00:57:36.736Z,67.84
2022-10-04T01:00:09.928Z,67.83
2022-10-04T01:02:47.900Z,67.67
2022-10-04T01:05:20.199Z,67.34
2022-10-04T01:07:56.432Z,67.63
2022-10-04T01:10:28.927Z,67.49
2022-10-04T01:13:06.149Z,67.33
2022-10-04T01:15:44.031Z,67.54
2022-10-04T01:18:17.031Z,67.47
2022-10-04T01:20:55.969Z,67.71
2022-10-04T01:23:54.649Z,67.73
2022-10-04T01:26:43.556Z,67.69
2022-10-04T01:29:15.751Z,67.63
2022-10-04T01:31:46.431Z,67.95
2022-10-04T01:34:18.224Z,67.93
2022-10-04T01:36:49.061Z,67.75
2022-10-04T01:39:20.857Z,67.87
2022-10-04T01:41:55.921Z,67.63
2022-10-04T01:44:32.170Z,67.12
2022-10-04T01:47:07.628Z,67.44
2022-10-04T01:49:40.093Z,67.48
2022-10-04T01:52:16.396Z,67.40
2022-10-04T01:54:51.595Z,67.52
2022-10-04T01:57:23.861Z,67.56
2022-10-04T01:59:58.675Z,67.87
2022-10-04T02:02:35.259Z,67.83
2022-10-04T02:05:07.993Z,67.75
2022-10-04T02:07:39.027Z,67.64
2022-10-04T02:10:13.790Z,67.63
2022-10-04T02:12:47.333Z,67.50
2022-10-04T02:15:17.725Z,67.42
2022-10-04T02:17:46.551Z,67.58
2022-10-04T02:20:18.593Z,67.58
2022-10-04T02:22:52.142Z,67.53
2022-10-04T02:25:22.693Z,67.35
2022-10-04T02:27:56.268Z,67.35
2022-10-04T02:30:25.897Z,67.44
2022-10-04T02:33:00.677Z,67.16
2022-10-04T02:35:35.711Z,67.48
2022-10-04T02:38:11.709Z,67.48
2022-10-04T02:40:49.233Z,67.50
2022-10-04T02:43:22.560Z,67.71
2022-10-04T02:45:53.845Z,67.72
2022-10-04T02:48:34.864Z,68.00
2022-10-04T02:51:16.169Z,68.19
2022-10-04T02:53:54.422Z,67.97
2022-10-04T02:56:25.513Z,68.17
2022-10-04T02:58:55.704Z,68.05
2022-10-04T03:01:29.456Z,68.17
2022-10-04T03:03:59.780Z,68.06
2022-10-04T03:06:32.949Z,67.92
2022-10-04T03:09:05.109Z,67.73
2022-10-04T03:11:38.279Z,67.76
2022-10-04T03:14:14.156Z,67.46
2022-10-04T03:16:46.376Z,67.59
2022-10-04T03:19:18.076Z,67.69
2022-10-04T03:21:50.691Z,67.70
2022-10-04T03:24:22.692Z,67.85
2022-10-04T03:26:56.497Z,67.78
2022-10-04T03:29:27.733Z,67.79
2022-10-04T03:31:58.794Z,67.83
2022-10-04T03:34:36.551Z,67.74
2022-10-04T03:37:08.604Z,67.58
2022-10-04T03:39:40.746Z,67.74
2022-10-04T03:42:16.496Z,67.48
2022-10-04T03:44:46.824Z,67.45
2022-10-04T03:47:20.937Z,67.46
2022-10-04T03:49:52.204Z,67.35
2022-10-04T03:52:25.644Z,67.32
2022-10-04T03:54:58.494Z,67.57
2022-10-04T03:57:29.877Z,67.54
2022-10-04T03:59:59.839Z,67.60
2022-10-04T04:02:35.479Z,67.70
2022-10-04T04:05:12.012Z,67.57
2022-10-04T04:07:46.856Z,67.41
2022-10-04T04:10:23.859Z,67.61
2022-10-04T04:12:58.378Z,67.66
2022-10-04T04:15:31.517Z,67.73
2022-10-04T04:18:04.560Z,67.81
2022-10-04T04:20:36.170Z,67.81
2022-10-04T04:23:14.013Z,67.97
2022-10-04T04:25:45.989Z,68.16
2022-10-04T04:28:27.028Z,68.12
2022-10-04T04:31:01.614Z,68.15
2022-10-04T04:33:35.240Z,68.15
2022-10-04T04:36:08.473Z,68.33
2022-10-04T04:38:57.003Z,68.04
2022-10-04T04:41:28.325Z,68.30
2022-10-04T04:43:58.972Z,68.51
2022-10-04T04:46:29.587Z,68.24
2022-10-04T04:49:02.619Z,68.18
2022-10-04T04:51:34.471Z,68.08
2022-10-04T04:54:05.796Z,67.96
2022-10-04T04:56:36.663Z,68.09
2022-10-04T04:59:09.179Z,68.04
2022-10-04T05:01:45.552Z,68.11
2022-10-04T05:04:21.447Z,68.08
2022-10-04T05:07:01.007Z,68.30
2022-10-04T05:09:32.550Z,68.15
2022-10-04T05:12:08.795Z,68.18
2022-10-04T05:14:42.524Z,68.44
2022-10-04T05:17:20.163Z,68.21
2022-10-04T05:19:49.129Z,68.40
2022-10-04T05:22:22.620Z,68.70
2022-10-04T05:24:54.972Z,68.74
2022-10-04T05:27:30.123Z,68.76
2022-10-04T05:30:07.395Z,68.95
2022-10-04T05:32:50.228Z,69.20
2022-10-04T05:35:20.610Z,69.18
2022-10-04T05:38:00.247Z,69.01
2022-10-04T05:40:39.452Z,68.85
2022-10-04T05:43:23.642Z,68.82
2022-10-04T05:46:23.415Z,68.68
2022-10-04T05:48:56.121Z,68.87
2022-10-04T05:51:28.046Z,68.80
2022-10-04T05:53:59.138Z,68.83
2022-10-04T05:56:49.749Z,68.91
2022-10-04T05:59:37.266Z,68.76
2022-10-04T06:02:22.783Z,68.70
2022-10-04T06:05:09.551Z,69.04
2022-10-04T06:07:43.003Z,69.02
2022-10-04T06:10:40.711Z,69.22
2022-10-04T06:13:19.153Z,69.47
2022-10-04T06:16:12.896Z,69.54
2022-10-04T06:19:03.865Z,69.67
2022-10-04T06:21:42.571Z,69.62
2022-10-04T06:24:15.806Z,69.56
2022-10-04T06:26:48.698Z,69.69
2022-10-04T06:29:20.648Z,69.51
2022-10-04T06:32:15.879Z,69.22
2022-10-04T06:35:18.168Z,69.49
2022-10-04T06:38:23.629Z,69.61
2022-10-04T06:41:08.435Z,69.69
2022-10-04T06:43:51.646Z,70.00
2022-10-04T06:46:28.192Z,70.06
2022-10-04T06:49:21.212Z,70.01
2022-10-04T06:52:21.377Z,70.14
2022-10-04T06:55:15.351Z,69.98
2022-10-04T06:58:08.964Z,69.80
2022-10-04T07:00:49.135Z,70.00
2022-10-04T07:03:26.464Z,70.07
2022-10-04T07:06:01.020Z,70.36
2022-10-04T07:08:39.188Z,70.45
2022-10-04T07:11:15.504Z,70.56
2022-10-04T07:13:52.351Z,70.89
2022-10-04T07:16:33.813Z,70.59
2022-10-04T07:19:13.517Z,70.89
2022-10-04T07:21:50.591Z,71.23
2022-10-04T07:24:26.316Z,71.21
2022-10-04T07:26:57.164Z,71.41
2022-10-04T07:29:29.178Z,71.34
2022-10-04T07:32:09.253Z,71.34
2022-10-04T07:34:44.311Z,71.09
2022-10-04T07:37:15.415Z,71.05
2022-10-04T07:39:51.808Z,71.05
2022-10-04T07:42:27.442Z,70.84
2022-10-04T07:45:10.209Z,70.98
2022-10-04T07:47:38.800Z,70.75
2022-10-04T07:50:23.484Z,70.86
2022-10-04T07:53:09.611Z,70.81
2022-10-04T07:55:49.193Z,70.63
2022-10-04T07:58:33.013Z,70.81
2022-10-04T08:01:06.171Z,70.66
2022-10-04T08:03:46.911Z,71.12
2022-10-04T08:06:22.549Z,70.87
2022-10-04T08:09:13.623Z,71.02
2022-10-04T08:11:51.977Z,70.85
2022-10-04T08:14:29.249Z,71.16
2022-10-04T08:17:15.655Z,71.30
2022-10-04T08:19:56.359Z,71.39
2022-10-04T08:22:36.332Z,71.30
2022-10-04T08:25:13.651Z,71.42
2022-10-04T08:28:17.862Z,71.26
2022-10-04T08:31:18.001Z,70.92
2022-10-04T08:34:00.676Z,71.13
2022-10-04T08:36:46.855Z,71.00
2022-10-04T08:39:35.743Z,70.86
2022-10-04T08:42:29.197Z,71.25
2022-10-04T08:45:37.905Z,70.65
2022-10-04T08:48:51.609Z,70.37
2022-10-04T08:52:00.208Z,69.79
2022-10-04T08:54:57.459Z,69.67
2022-10-04T08:57:54.484Z,69.48
2022-10-04T09:00:36.787Z,69.35
2022-10-04T09:03:46.613Z,69.21
2022-10-04T09:06:34.393Z,68.90
2022-10-04T09:09:48.035Z,68.80
2022-10-04T09:12:49.677Z,68.62
2022-10-04T09:15:31.639Z,68.26
2022-10-04T09:18:21.575Z,68.27
2022-10-04T09:21:01.257Z,67.61
2022-10-04T09:24:05.892Z,67.63
2022-10-04T09:26:46.055Z,67.08
2022-10-04T09:29:55.543Z,66.14
2022-10-04T09:33:04.085Z,65.74
2022-10-04T09:36:05.196Z,65.26
2022-10-04T09:39:29.870Z,64.57
2022-10-04T09:42:15.753Z,63.78
2022-10-04T09:45:02.790Z,63.40
2022-10-04T09:47:37.948Z,62.81
2022-10-04T09:50:26.927Z,62.42
2022-10-04T09:53:02.859Z,61.70
2022-10-04T09:55:52.588Z,60.57
2022-10-04T09:58:51.866Z,59.60
2022-10-04T10:01:29.544Z,59.74
2022-10-04T10:04:25.104Z,58.86
2022-10-04T10:07:12.004Z,58.39
2022-10-04T10:10:04.479Z,58.13
2022-10-04T10:13:11.725Z,57.38
2022-10-04T10:16:00.120Z,57.19
2022-10-04T10:18:44.099Z,56.49
2022-10-04T10:21:28.284Z,55.91
2022-10-04T10:24:17.441Z,55.50
2022-10-04T10:27:03.575Z,54.79
2022-10-04T10:29:48.041Z,54.64
2022-10-04T10:32:48.739Z,54.11
2022-10-04T10:35:27.944Z,53.35
2022-10-04T10:38:22.985Z,53.08
2022-10-04T10:41:31.688Z,52.69
2022-10-04T10:44:31.101Z,51.71
2022-10-04T10:47:22.045Z,51.90
2022-10-04T10:50:25.250Z,51.58
2022-10-04T10:53:29.458Z,51.34
2022-10-04T10:56:32.586Z,50.65
2022-10-04T10:59:42.564Z,50.19
2022-10-04T11:02:50.330Z,50.14
2022-10-04T11:05:41.639Z,50.05
2022-10-04T11:08:35.869Z,49.39
2022-10-04T11:11:21.157Z,49.35
2022-10-04T11:14:16.797Z,49.34
2022-10-04T11:17:24.080Z,48.95
2022-10-04T11:20:26.221Z,48.32
2022-10-04T11:23:22.047Z,47.61
2022-10-04T11:26:08.718Z,47.54
2022-10-04T11:28:46.857Z,47.03
2022-10-04T11:31:51.773Z,46.26
2022-10-04T11:34:52.134Z,46.23
2022-10-04T11:37:32.403Z,46.40
2022-10-04T11:40:23.805Z,46.43
2022-10-04T11:43:12.341Z,45.44
2022-10-04T11:46:13.682Z,45.58
2022-10-04T11:48:55.408Z,45.02
2022-10-04T11:52:02.613Z,44.94
2022-10-04T11:55:08.225Z,45.28
2022-10-04T11:57:44.807Z,45.37
2022-10-04T12:00:17.044Z,45.08
2022-10-04T12:03:31.452Z,45.11
2022-10-04T12:06:23.372Z,44.16
2022-10-04T12:09:06.732Z,44.11
2022-10-04T12:12:29.895Z,43.45
2022-10-04T12:15:19.593Z,42.63
2022-10-04T12:18:19.783Z,41.84
2022-10-04T12:21:07.494Z,42.22
2022-10-04T12:24:04.200Z,41.37
2022-10-04T12:26:51.589Z,41.03
2022-10-04T12:30:03.116Z,40.56
2022-10-04T12:32:40.069Z,40.73
2022-10-04T12:35:24.126Z,41.22
2022-10-04T12:38:15.226Z,40.56
2022-10-04T12:40:50.239Z,40.46
2022-10-04T12:43:25.903Z,39.76
2022-10-04T12:46:07.518Z,39.97
2022-10-04T12:48:58.375Z,39.04
2022-10-04T12:51:39.485Z,39.10
2022-10-04T12:54:30.319Z,39.07
2022-10-04T12:57:10.731Z,39.41
2022-10-04T12:59:53.461Z,38.85
2022-10-04T13:02:37.001Z,38.86
2022-10-04T13:05:18.095Z,38.35
2022-10-04T13:08:17.765Z,37.96
2022-10-04T13:11:10.971Z,38.07
2022-10-04T13:14:04.228Z,38.33
2022-10-04T13:19:44.292Z,38.30
2022-10-04T13:22:56.095Z,37.96
2022-10-04T13:26:00.006Z,37.71
2022-10-04T13:28:39.585Z,37.56
2022-10-04T13:31:16.012Z,36.91
2022-10-04T13:33:51.466Z,37.12
2022-10-04T13:36:30.741Z,36.57
2022-10-04T13:39:25.378Z,36.19
2022-10-04T13:42:21.004Z,36.26
2022-10-04T13:45:06.759Z,36.33
2022-10-04T13:47:53.044Z,35.76
2022-10-04T13:50:36.711Z,36.18
2022-10-04T13:53:37.149Z,36.06
2022-10-04T13:56:35.168Z,36.27
2022-10-04T13:59:12.345Z,36.15
2022-10-04T14:02:34.924Z,36.43
2022-10-04T14:05:46.816Z,36.50
2022-10-04T14:08:44.423Z,36.55
2022-10-04T14:11:48.949Z,36.91
2022-10-04T14:15:00.460Z,36.80
2022-10-04T14:18:15.735Z,36.04
2022-10-04T14:21:23.646Z,36.04
2022-10-04T14:24:34.893Z,36.54
2022-10-04T14:27:28.475Z,36.50
2022-10-04T14:30:07.663Z,36.42
2022-10-04T14:33:08.236Z,36.36
2022-10-04T14:35:46.669Z,36.45
2022-10-04T14:38:39.609Z,36.18
2022-10-04T14:41:33.940Z,35.80
2022-10-04T14:44:30.047Z,35.84
2022-10-04T14:47:13.756Z,35.65
2022-10-04T14:50:05.179Z,35.81
2022-10-04T14:52:50.589Z,35.83
2022-10-04T14:55:49.113Z,35.71
2022-10-04T14:58:29.549Z,35.74
2022-10-04T15:01:19.542Z,35.42
2022-10-04T15:04:13.947Z,35.50
2022-10-04T15:06:49.379Z,35.21
2022-10-04T15:09:50.689Z,35.60
2022-10-04T15:13:10.019Z,35.48
2022-10-04T15:15:50.989Z,35.57
2022-10-04T15:18:29.353Z,35.39
2022-10-04T15:21:02.336Z,35.88
2022-10-04T15:23:37.954Z,35.98
2022-10-04T15:26:50.795Z,36.02
2022-10-04T15:29:29.018Z,36.63
2022-10-04T15:32:07.651Z,36.40
2022-10-04T15:34:45.639Z,36.34
2022-10-04T15:37:25.608Z,36.52
2022-10-04T15:40:27.641Z,36.55
2022-10-04T15:43:17.193Z,37.26
2022-10-04T15:46:03.120Z,37.49
2022-10-04T15:48:47.770Z,37.96
2022-10-04T15:51:26.849Z,38.51
2022-10-04T15:54:17.485Z,38.80
2022-10-04T15:56:57.141Z,39.23
2022-10-04T15:59:37.500Z,39.90
2022-10-04T16:02:27.551Z,40.46
2022-10-04T16:05:04.508Z,41.05
2022-10-04T16:08:00.382Z,41.54
2022-10-04T16:10:48.245Z,41.94
2022-10-04T16:13:34.476Z,43.08
2022-10-04T16:16:32.210Z,43.64
2022-10-04T16:19:12.204Z,43.95
2022-10-04T16:21:51.970Z,44.83
2022-10-04T16:24:40.917Z,45.43
2022-10-04T16:27:43.149Z,45.54
2022-10-04T16:30:28.440Z,46.20
2022-10-04T16:33:31.213Z,46.99
2022-10-04T16:36:10.111Z,47.25
2022-10-04T16:39:07.677Z,47.40
2022-10-04T16:41:44.609Z,47.58
2022-10-04T16:44:32.501Z,47.82
2022-10-04T16:47:04.360Z,48.18
2022-10-04T16:49:41.515Z,48.50
2022-10-04T16:52:27.450Z,48.96
2022-10-04T16:55:22.691Z,49.63
2022-10-04T16:58:42.935Z,49.98
2022-10-04T17:02:03.224Z,50.50
2022-10-04T17:04:52.185Z,51.10
2022-10-04T17:07:28.963Z,51.46
2022-10-04T17:10:03.384Z,51.72
2022-10-04T17:12:45.535Z,51.74
2022-10-04T17:15:27.667Z,52.02
2022-10-04T17:18:13.590Z,52.18
2022-10-04T17:20:56.745Z,52.37
2022-10-04T17:23:47.069Z,52.66
2022-10-04T17:26:31.785Z,53.09
2022-10-04T17:29:09.951Z,53.55
2022-10-04T17:31:50.540Z,53.64
2022-10-04T17:34:31.646Z,53.93
2022-10-04T17:37:14.344Z,54.26
2022-10-04T17:39:49.634Z,54.64
2022-10-04T17:42:30.361Z,55.56
2022-10-04T17:45:19.847Z,55.30
2022-10-04T17:48:16.396Z,55.43
2022-10-04T17:51:12.411Z,55.79
2022-10-04T17:54:06.133Z,55.98
2022-10-04T17:56:40.860Z,56.24
2022-10-04T17:59:14.192Z,56.38
2022-10-04T18:01:47.300Z,56.33
2022-10-04T18:04:20.754Z,56.66
2022-10-04T18:06:53.889Z,56.75
2022-10-04T18:09:30.579Z,56.64
2022-10-04T18:12:02.930Z,56.80
2022-10-04T18:14:51.974Z,57.03
2022-10-04T18:17:32.967Z,57.13
2022-10-04T18:20:21.469Z,57.45
2022-10-04T18:22:59.372Z,57.64
2022-10-04T18:25:30.439Z,57.71
2022-10-04T18:28:06.629Z,57.74
2022-10-04T18:30:52.525Z,58.15
2022-10-04T18:33:26.413Z,58.26
2022-10-04T18:36:04.655Z,58.64
2022-10-04T18:38:35.696Z,58.65
2022-10-04T18:41:19.275Z,58.55
2022-10-04T18:43:52.799Z,58.82
2022-10-04T18:46:23.232Z,58.85
2022-10-04T18:48:54.872Z,58.76
2022-10-04T18:51:29.208Z,58.92
2022-10-04T18:54:15.230Z,59.11
2022-10-04T18:57:04.597Z,59.09
2022-10-04T18:59:57.602Z,59.22
2022-10-04T19:02:35.143Z,59.50
2022-10-04T19:05:12.173Z,59.41
2022-10-04T19:07:48.176Z,59.81
2022-10-04T19:10:26.998Z,59.61
2022-10-04T19:13:18.123Z,59.67
2022-10-04T19:16:04.920Z,59.77
2022-10-04T19:18:48.080Z,59.74
2022-10-04T19:21:26.786Z,59.68
2022-10-04T19:24:12.048Z,59.86
2022-10-04T19:26:45.147Z,59.75
2022-10-04T19:29:24.726Z,60.17
2022-10-04T19:31:59.101Z,60.11
2022-10-04T19:34:40.208Z,60.36
2022-10-04T19:37:17.728Z,60.25
2022-10-04T19:39:57.315Z,60.66
2022-10-04T19:42:35.538Z,60.45
2022-10-04T19:45:19.460Z,60.56
2022-10-04T19:47:51.963Z,60.89
2022-10-04T19:50:24.160Z,60.87
2022-10-04T19:52:55.382Z,61.12
2022-10-04T19:55:43.821Z,61.23
2022-10-04T19:58:38.222Z,61.35
2022-10-04T20:01:13.073Z,61.01
2022-10-04T20:03:42.864Z,61.24
2022-10-04T20:06:21.756Z,61.20
2022-10-04T20:09:01.944Z,61.54
2022-10-04T20:11:49.984Z,61.44
2022-10-04T20:14:55.365Z,62.12
2022-10-04T20:17:44.244Z,62.31
2022-10-04T20:20:16.257Z,62.13
2022-10-04T20:22:57.871Z,62.41
2022-10-04T20:26:00.318Z,61.94
2022-10-04T20:28:44.845Z,62.12
2022-10-04T20:31:47.128Z,62.37
2022-10-04T20:34:35.440Z,62.31
2022-10-04T20:37:05.451Z,62.33
2022-10-04T20:40:01.542Z,62.19
2022-10-04T20:42:33.989Z,62.86
2022-10-04T20:45:19.064Z,62.59
2022-10-04T20:47:49.152Z,62.61
2022-10-04T20:50:30.691Z,62.62
2022-10-04T20:53:02.851Z,62.69
2022-10-04T20:55:33.839Z,62.50
2022-10-04T20:58:05.122Z,62.48
2022-10-04T21:00:35.828Z,62.43
2022-10-04T21:03:22.265Z,62.55
2022-10-04T21:06:03.891Z,62.24
2022-10-04T21:08:33.487Z,62.78
2022-10-04T21:11:44.113Z,62.48
2022-10-04T21:14:23.924Z,62.75
2022-10-04T21:16:58.695Z,62.51
2022-10-04T21:19:46.544Z,62.42
2022-10-04T21:22:39.858Z,62.47
2022-10-04T21:25:41.652Z,62.63
2022-10-04T21:28:32.049Z,62.72
2022-10-04T21:31:01.052Z,62.89
2022-10-04T21:33:31.846Z,62.82
2022-10-04T21:36:00.552Z,63.12
2022-10-04T21:38:30.893Z,62.88
2022-10-04T21:40:59.863Z,63.16
2022-10-04T21:43:29.157Z,62.90
2022-10-04T21:45:57.834Z,63.20
2022-10-04T21:48:27.468Z,63.36
2022-10-04T21:50:56.422Z,63.21
2022-10-04T21:53:25.662Z,62.86
2022-10-04T21:55:55.894Z,63.15
2022-10-04T21:58:24.378Z,62.83
2022-10-04T22:00:53.639Z,62.89
2022-10-04T22:03:22.654Z,62.89
2022-10-04T22:05:51.300Z,63.34
2022-10-04T22:08:20.323Z,63.17
2022-10-04T22:10:49.290Z,63.75
2022-10-04T22:13:19.608Z,63.64
2022-10-04T22:15:48.101Z,63.77
2022-10-04T22:18:17.465Z,63.58
2022-10-04T22:20:47.107Z,63.70
2022-10-04T22:23:19.176Z,63.80
2022-10-04T22:25:48.501Z,63.54
2022-10-04T22:28:23.476Z,63.51
2022-10-04T22:30:53.671Z,63.53
2022-10-04T22:33:29.788Z,63.62
2022-10-04T22:36:00.838Z,63.68
2022-10-04T22:38:29.317Z,63.68
2022-10-04T22:40:58.673Z,63.96
2022-10-04T22:43:28.510Z,63.98
2022-10-04T22:45:57.364Z,64.36
2022-10-04T22:48:28.932Z,64.09
2022-10-04T22:50:57.535Z,64.26
2022-10-04T22:53:26.395Z,63.85
2022-10-04T22:55:56.205Z,63.75
2022-10-04T22:58:25.528Z,63.86
2022-10-04T23:00:56.760Z,63.86
2022-10-04T23:03:31.231Z,64.25
2022-10-04T23:06:02.113Z,64.15
2022-10-04T23:08:31.710Z,64.29
2022-10-04T23:11:02.101Z,64.31
2022-10-04T23:13:31.033Z,64.41
2022-10-04T23:16:07.878Z,64.75
2022-10-04T23:18:36.902Z,64.80
2022-10-04T23:21:20.483Z,64.77
2022-10-04T23:23:50.697Z,64.80
2022-10-04T23:26:24.260Z,64.60
2022-10-04T23:28:53.114Z,64.68
2022-10-04T23:31:25.632Z,64.51
2022-10-04T23:33:58.272Z,64.70
2022-10-04T23:36:27.153Z,64.73
2022-10-04T23:39:00.580Z,64.67
2022-10-04T23:41:29.677Z,64.68
2022-10-04T23:43:59.056Z,64.61
2022-10-04T23:46:31.681Z,64.97
2022-10-04T23:49:00.527Z,64.86
2022-10-04T23:51:29.600Z,64.56
2022-10-04T23:53:59.642Z,64.43
2022-10-04T23:56:30.478Z,64.60
2022-10-04T23:59:00.731Z,64.57
